Time;durP1;ratioP1;P1;durP2;ratioP2;P2;SDS_P1;SDS_P2;PMS_P1;PMS_P2;Temp;Humidity;BMP_temperature;BMP_pressure;BME280_temperature;BME280_humidity;BME280_pressure;Samples;Min_cycle;Max_cycle;Signal;HPM_P1;HPM_P2
2023/04/20 00:02:06;;;;;;;6.15;2.70;;;9.80;94.50;;;;;;5076292;28;20032;-74
2023/04/20 00:04:31;;;;;;;5.68;2.90;;;9.80;95.50;;;;;;5076357;28;20035;-74
2023/04/20 00:06:57;;;;;;;5.32;2.80;;;9.80;94.90;;;;;;5076390;28;20021;-74
2023/04/20 00:09:25;;;;;;;9.10;3.15;;;9.90;94.90;;;;;;5076570;28;20028;-68
2023/04/20 00:11:51;;;;;;;6.20;2.80;;;9.90;95.00;;;;;;5076816;28;20078;-68
2023/04/20 00:14:16;;;;;;;4.55;2.67;;;9.80;94.50;;;;;;5076271;28;20028;-68
2023/04/20 00:16:42;;;;;;;9.68;3.05;;;9.80;95.20;;;;;;5076459;28;20020;-68
2023/04/20 00:19:08;;;;;;;4.10;2.92;;;9.80;95.20;;;;;;5076994;28;20084;-68
2023/04/20 00:21:33;;;;;;;6.00;3.05;;;9.90;95.70;;;;;;5077088;28;20028;-68
2023/04/20 00:23:59;;;;;;;6.50;2.50;;;9.90;95.40;;;;;;5077111;28;20040;-68
2023/04/20 00:26:25;;;;;;;4.35;2.38;;;9.90;95.20;;;;;;5077178;28;20120;-68
2023/04/20 00:28:51;;;;;;;4.00;2.70;;;9.80;95.90;;;;;;5075363;28;20036;-68
2023/04/20 00:31:17;;;;;;;5.32;2.85;;;9.80;96.10;;;;;;5075921;28;20123;-69
2023/04/20 00:33:43;;;;;;;5.05;2.60;;;9.80;95.10;;;;;;5076927;28;20025;-68
2023/04/20 00:36:09;;;;;;;8.65;3.08;;;9.70;95.10;;;;;;5076435;28;20122;-68
2023/04/20 00:38:35;;;;;;;8.50;2.85;;;9.70;95.10;;;;;;5076744;28;20048;-68
2023/04/20 00:41:00;;;;;;;4.95;2.80;;;9.70;95.10;;;;;;5076853;28;20243;-68
2023/04/20 00:43:26;;;;;;;6.47;2.53;;;9.70;95.30;;;;;;5076583;28;20064;-68
2023/04/20 00:45:52;;;;;;;6.53;2.88;;;9.70;94.90;;;;;;5076115;28;20024;-68
2023/04/20 00:48:18;;;;;;;6.03;2.85;;;9.60;94.80;;;;;;5075935;28;20082;-68
2023/04/20 00:50:44;;;;;;;6.88;2.63;;;9.30;97.00;;;;;;5076270;28;20028;-68
2023/04/20 00:53:10;;;;;;;4.05;2.70;;;9.40;99.20;;;;;;5075651;28;20029;-68
2023/04/20 00:55:36;;;;;;;5.38;2.83;;;9.40;99.70;;;;;;5076084;28;20025;-68
2023/04/20 00:58:02;;;;;;;6.82;3.40;;;9.40;99.90;;;;;;5075805;28;20030;-68
2023/04/20 01:00:28;;;;;;;10.38;3.22;;;9.50;99.90;;;;;;5077217;28;20017;-68
2023/04/20 01:02:53;;;;;;;8.73;3.70;;;9.30;99.90;;;;;;5075676;28;20025;-68
2023/04/20 01:05:19;;;;;;;6.28;3.30;;;9.30;99.90;;;;;;5076469;28;20237;-68
2023/04/20 01:07:45;;;;;;;6.88;3.38;;;9.20;99.90;;;;;;5076615;28;20024;-68
2023/04/20 01:10:11;;;;;;;10.13;3.55;;;9.10;99.90;;;;;;5076421;28;20051;-68
2023/04/20 01:12:36;;;;;;;7.05;3.38;;;9.00;99.90;;;;;;5075924;28;20027;-68
2023/04/20 01:15:04;;;;;;;7.40;3.60;;;9.00;99.90;;;;;;5075696;28;20024;-68
2023/04/20 01:17:30;;;;;;;6.00;3.47;;;8.80;99.90;;;;;;5076453;28;20020;-69
2023/04/20 01:19:56;;;;;;;8.43;3.45;;;8.70;99.90;;;;;;5075929;28;20120;-68
2023/04/20 01:22:21;;;;;;;12.38;3.63;;;8.70;99.90;;;;;;5075528;28;20115;-68
2023/04/20 01:24:47;;;;;;;6.00;3.33;;;8.80;99.90;;;;;;5075529;28;20021;-68
2023/04/20 01:27:15;;;;;;;5.90;3.05;;;8.70;99.90;;;;;;5076372;28;20079;-68
2023/04/20 01:29:41;;;;;;;9.40;3.83;;;8.70;99.90;;;;;;5076508;28;20021;-68
2023/04/20 01:32:07;;;;;;;10.18;3.50;;;8.70;99.90;;;;;;5075207;28;20035;-68
2023/04/20 01:34:33;;;;;;;7.30;3.60;;;8.60;99.90;;;;;;5075689;28;20016;-68
2023/04/20 01:36:59;;;;;;;6.75;3.78;;;8.60;99.90;;;;;;5076538;28;20021;-68
2023/04/20 01:39:24;;;;;;;6.63;3.70;;;8.50;99.90;;;;;;5076974;28;20016;-68
2023/04/20 01:41:50;;;;;;;13.38;4.07;;;8.60;99.90;;;;;;5078782;28;20032;-68
2023/04/20 01:44:16;;;;;;;6.97;4.10;;;8.60;99.90;;;;;;5079480;28;20016;-68
2023/04/20 01:46:41;;;;;;;6.50;3.83;;;8.50;99.90;;;;;;5078862;28;20090;-68
2023/04/20 01:49:07;;;;;;;5.82;3.88;;;8.40;99.90;;;;;;5079683;28;20025;-68
2023/04/20 01:51:34;;;;;;;12.05;3.67;;;8.10;99.90;;;;;;5078803;28;20028;-68
2023/04/20 01:54:00;;;;;;;6.85;3.45;;;8.10;99.90;;;;;;5079349;28;20020;-68
2023/04/20 01:56:25;;;;;;;10.38;3.67;;;8.00;99.90;;;;;;5079192;28;20021;-68
2023/04/20 01:58:51;;;;;;;4.97;3.40;;;7.90;99.90;;;;;;5079088;28;20047;-68
2023/04/20 02:01:17;;;;;;;15.02;3.97;;;7.90;99.90;;;;;;5079309;28;20059;-68
2023/04/20 02:03:42;;;;;;;10.73;3.83;;;7.90;99.90;;;;;;5078655;28;20026;-68
2023/04/20 02:06:08;;;;;;;7.47;3.92;;;7.90;99.90;;;;;;5079685;28;20024;-68
2023/04/20 02:08:34;;;;;;;13.00;4.18;;;7.90;99.90;;;;;;5079274;28;20028;-68
2023/04/20 02:10:59;;;;;;;7.38;3.58;;;7.90;99.90;;;;;;5078291;28;20027;-68
2023/04/20 02:13:25;;;;;;;10.55;4.07;;;7.70;99.90;;;;;;5078218;28;20021;-68
2023/04/20 02:15:50;;;;;;;7.97;4.32;;;7.70;99.90;;;;;;5079177;28;20024;-68
2023/04/20 02:18:16;;;;;;;7.40;3.92;;;7.70;99.90;;;;;;5078539;28;20029;-68
2023/04/20 02:20:43;;;;;;;6.70;3.83;;;7.80;99.90;;;;;;5079006;28;20121;-68
2023/04/20 02:23:08;;;;;;;7.55;4.35;;;7.60;99.90;;;;;;5078459;28;20028;-68
2023/04/20 02:25:34;;;;;;;6.10;4.10;;;7.50;99.90;;;;;;5078144;28;20036;-68
2023/04/20 02:28:00;;;;;;;8.95;4.43;;;7.40;99.90;;;;;;5078054;28;20031;-68
2023/04/20 02:30:25;;;;;;;10.25;4.40;;;7.30;99.90;;;;;;5078826;28;20033;-68
2023/04/20 02:32:51;;;;;;;7.60;4.38;;;7.30;99.90;;;;;;5077899;28;20036;-68
2023/04/20 02:35:17;;;;;;;6.43;4.20;;;7.20;99.90;;;;;;5077884;28;20021;-68
2023/04/20 02:37:43;;;;;;;9.07;4.20;;;7.20;99.90;;;;;;5078816;28;20021;-68
2023/04/20 02:40:09;;;;;;;7.60;3.97;;;7.20;99.90;;;;;;5079678;28;20024;-68
2023/04/20 02:42:35;;;;;;;6.95;3.88;;;7.10;99.90;;;;;;5083167;28;20032;-68
2023/04/20 02:45:00;;;;;;;7.65;4.53;;;7.00;99.90;;;;;;5077699;28;20020;-68
2023/04/20 02:47:26;;;;;;;6.10;3.95;;;7.10;99.90;;;;;;5077667;28;20028;-68
2023/04/20 02:49:51;;;;;;;5.88;4.07;;;7.10;99.90;;;;;;5077601;28;20028;-68
2023/04/20 02:52:17;;;;;;;9.60;4.00;;;7.20;99.90;;;;;;5076820;28;20032;-68
2023/04/20 02:54:42;;;;;;;6.93;4.15;;;7.20;99.90;;;;;;5077492;28;20024;-68
2023/04/20 02:57:10;;;;;;;8.50;4.10;;;7.20;99.90;;;;;;5078378;28;20096;-68
2023/04/20 02:59:36;;;;;;;8.85;4.68;;;7.20;99.90;;;;;;5077552;28;20060;-68
2023/04/20 03:02:01;;;;;;;10.32;5.55;;;7.20;99.90;;;;;;5077269;28;20028;-68
2023/04/20 03:04:27;;;;;;;11.00;5.95;;;7.10;99.90;;;;;;5077351;28;20035;-68
2023/04/20 03:06:52;;;;;;;9.57;5.35;;;7.20;99.90;;;;;;5077415;28;20032;-68
2023/04/20 03:09:19;;;;;;;8.75;4.60;;;7.30;99.90;;;;;;5077983;28;20070;-68
2023/04/20 03:11:44;;;;;;;9.45;5.22;;;7.30;99.90;;;;;;5078083;28;20115;-68
2023/04/20 03:14:10;;;;;;;9.10;4.90;;;7.50;99.90;;;;;;5077563;28;20059;-68
2023/04/20 03:16:36;;;;;;;9.10;5.22;;;7.60;99.90;;;;;;5077269;28;20027;-68
2023/04/20 03:19:03;;;;;;;9.18;5.50;;;7.60;99.90;;;;;;5077294;28;20021;-68
2023/04/20 03:21:28;;;;;;;9.18;5.35;;;7.70;99.90;;;;;;5077594;28;20048;-68
2023/04/20 03:23:54;;;;;;;9.98;4.72;;;7.60;99.90;;;;;;5077586;28;20031;-68
2023/04/20 03:26:20;;;;;;;8.75;5.30;;;7.50;99.90;;;;;;5079246;28;20028;-74
2023/04/20 03:28:45;;;;;;;8.63;5.03;;;7.40;99.90;;;;;;5078489;28;20032;-74
2023/04/20 03:31:11;;;;;;;9.95;5.07;;;7.40;99.90;;;;;;5077895;28;20032;-74
2023/04/20 03:33:36;;;;;;;10.13;6.00;;;7.20;99.90;;;;;;5078231;28;20032;-75
2023/04/20 03:36:03;;;;;;;11.35;5.57;;;7.20;99.90;;;;;;5084971;28;20016;-74
2023/04/20 03:38:29;;;;;;;10.77;5.35;;;7.40;99.90;;;;;;5078676;28;20021;-74
2023/04/20 03:40:55;;;;;;;10.88;5.43;;;7.30;99.90;;;;;;5078600;28;20028;-74
2023/04/20 03:43:20;;;;;;;7.85;5.60;;;7.20;99.90;;;;;;5077723;28;20021;-74
2023/04/20 03:45:46;;;;;;;11.43;5.95;;;7.20;99.90;;;;;;5077719;28;20029;-74
2023/04/20 03:48:11;;;;;;;8.98;5.35;;;7.20;99.90;;;;;;5077219;28;20029;-74
2023/04/20 03:50:37;;;;;;;10.35;5.45;;;7.20;99.90;;;;;;5082980;28;20063;-74
2023/04/20 03:53:02;;;;;;;8.77;5.20;;;7.20;99.90;;;;;;5077643;28;20077;-74
2023/04/20 03:55:28;;;;;;;9.32;5.85;;;7.20;99.90;;;;;;5076477;28;20070;-74
2023/04/20 03:57:53;;;;;;;12.05;5.97;;;7.30;99.90;;;;;;5077422;28;20035;-74
2023/04/20 04:00:19;;;;;;;9.95;6.50;;;7.40;99.90;;;;;;5076527;28;20020;-74
2023/04/20 04:02:45;;;;;;;8.85;5.55;;;7.40;99.90;;;;;;5075272;28;20021;-74
2023/04/20 04:05:11;;;;;;;8.50;4.53;;;7.40;99.90;;;;;;5077243;28;20028;-74
2023/04/20 04:07:36;;;;;;;9.70;5.55;;;7.30;99.90;;;;;;5077704;28;20024;-74
2023/04/20 04:10:04;;;;;;;7.38;4.82;;;7.30;99.90;;;;;;5077246;28;20036;-74
2023/04/20 04:12:30;;;;;;;10.10;5.32;;;7.40;99.90;;;;;;5076067;28;20031;-74
2023/04/20 04:14:55;;;;;;;9.45;5.43;;;7.40;99.90;;;;;;5076448;28;20024;-74
2023/04/20 04:17:21;;;;;;;9.82;4.88;;;7.50;99.90;;;;;;5076164;28;20047;-74
2023/04/20 04:19:46;;;;;;;8.93;5.40;;;7.40;99.90;;;;;;5077012;28;20028;-74
2023/04/20 04:22:12;;;;;;;9.32;5.30;;;7.30;99.90;;;;;;5076094;28;20027;-74
2023/04/20 04:24:37;;;;;;;6.95;4.80;;;7.20;99.90;;;;;;5076915;28;20111;-74
2023/04/20 04:27:06;;;;;;;8.45;5.72;;;7.10;99.90;;;;;;5077033;28;20021;-74
2023/04/20 04:29:37;;;;;;;7.75;5.03;;;7.10;99.90;;;;;;5076835;28;20029;-74
2023/04/20 04:32:04;;;;;;;8.80;5.30;;;7.20;99.90;;;;;;5076808;28;20028;-74
2023/04/20 04:34:30;;;;;;;10.50;5.47;;;7.30;99.90;;;;;;5076101;28;20021;-74
2023/04/20 04:36:56;;;;;;;9.13;5.25;;;7.20;99.90;;;;;;5076883;28;20025;-74
2023/04/20 04:39:21;;;;;;;9.15;4.97;;;7.40;99.90;;;;;;5075998;28;20028;-68
2023/04/20 04:41:47;;;;;;;8.80;4.90;;;7.30;99.90;;;;;;5076184;28;20051;-68
2023/04/20 04:44:14;;;;;;;7.55;4.75;;;7.30;99.90;;;;;;5076666;28;20086;-68
2023/04/20 04:46:40;;;;;;;7.85;5.40;;;7.40;99.90;;;;;;5077069;28;20020;-68
2023/04/20 04:49:06;;;;;;;8.40;5.45;;;7.30;99.90;;;;;;5076638;28;20021;-69
2023/04/20 04:51:32;;;;;;;8.48;5.05;;;7.30;99.90;;;;;;5075762;28;20028;-68
2023/04/20 04:53:58;;;;;;;7.72;4.38;;;7.40;99.90;;;;;;5076703;28;20029;-68
2023/04/20 04:56:23;;;;;;;10.10;5.00;;;7.30;99.90;;;;;;5076538;28;20063;-69
2023/04/20 04:58:49;;;;;;;6.78;4.00;;;7.30;99.90;;;;;;5076982;28;20052;-69
2023/04/20 05:01:15;;;;;;;8.00;4.75;;;7.20;99.90;;;;;;5076893;28;20025;-68
2023/04/20 05:03:40;;;;;;;10.38;5.60;;;7.10;99.90;;;;;;5076498;28;20074;-69
2023/04/20 05:06:06;;;;;;;9.32;5.80;;;7.20;99.90;;;;;;5076703;28;20024;-68
2023/04/20 05:08:33;;;;;;;10.30;5.30;;;7.30;99.90;;;;;;5075954;28;20037;-68
2023/04/20 05:10:58;;;;;;;9.73;5.70;;;7.30;99.90;;;;;;5075520;28;20025;-69
2023/04/20 05:13:24;;;;;;;8.13;4.95;;;7.40;99.90;;;;;;5075924;28;20027;-69
2023/04/20 05:15:50;;;;;;;8.00;5.05;;;7.40;99.90;;;;;;5079153;28;20104;-69
2023/04/20 05:18:15;;;;;;;10.30;5.47;;;7.40;99.90;;;;;;5079375;28;20025;-69
2023/04/20 05:20:41;;;;;;;8.55;5.10;;;7.50;99.90;;;;;;5079730;28;20036;-69
2023/04/20 05:23:07;;;;;;;8.57;5.18;;;7.30;99.90;;;;;;5080028;28;20115;-69
2023/04/20 05:25:32;;;;;;;8.30;5.50;;;7.30;99.90;;;;;;5079312;28;20020;-69
2023/04/20 05:27:58;;;;;;;8.65;5.10;;;7.30;99.90;;;;;;5080302;28;20043;-69
2023/04/20 05:30:23;;;;;;;7.13;4.25;;;7.20;99.90;;;;;;5079346;28;20032;-68
2023/04/20 05:32:49;;;;;;;9.13;4.90;;;7.30;99.90;;;;;;5079357;28;20093;-68
2023/04/20 05:35:15;;;;;;;6.05;4.15;;;7.30;99.90;;;;;;5079008;28;20021;-68
2023/04/20 05:37:40;;;;;;;5.53;4.47;;;7.30;99.90;;;;;;5079832;28;20088;-68
2023/04/20 05:40:08;;;;;;;5.78;3.90;;;7.40;99.90;;;;;;5078931;28;20032;-69
2023/04/20 05:42:34;;;;;;;5.40;4.00;;;7.40;99.90;;;;;;5079087;28;20033;-68
2023/04/20 05:44:59;;;;;;;4.85;3.40;;;7.30;99.90;;;;;;5078810;28;20028;-69
2023/04/20 05:47:26;;;;;;;5.25;4.00;;;7.30;99.90;;;;;;5078736;28;20028;-69
2023/04/20 05:49:52;;;;;;;7.70;4.10;;;7.30;99.90;;;;;;5078661;28;20032;-68
2023/04/20 05:52:18;;;;;;;7.78;4.60;;;7.30;99.90;;;;;;5079958;28;20021;-68
2023/04/20 05:54:43;;;;;;;6.03;4.28;;;7.40;99.90;;;;;;5078530;28;20023;-68
2023/04/20 05:57:08;;;;;;;6.78;4.22;;;7.40;99.90;;;;;;5078892;28;20021;-74
2023/04/20 05:59:34;;;;;;;8.27;3.83;;;7.40;99.90;;;;;;5078499;28;20075;-74
2023/04/20 06:02:00;;;;;;;4.47;3.22;;;7.40;99.90;;;;;;5079306;28;20021;-74
2023/04/20 06:04:26;;;;;;;6.32;4.45;;;7.40;99.90;;;;;;5078822;28;20020;-74
2023/04/20 06:06:52;;;;;;;8.48;4.30;;;7.30;99.90;;;;;;5078377;28;20025;-74
2023/04/20 06:09:18;;;;;;;10.48;4.32;;;7.20;99.90;;;;;;5079252;28;20021;-74
2023/04/20 06:11:43;;;;;;;7.43;4.10;;;7.30;99.90;;;;;;5078401;28;20052;-74
2023/04/20 06:14:10;;;;;;;5.57;3.67;;;7.30;99.90;;;;;;5079133;28;20024;-74
2023/04/20 06:16:36;;;;;;;5.57;3.83;;;7.30;99.90;;;;;;5078466;28;20035;-74
2023/04/20 06:19:02;;;;;;;6.43;3.70;;;7.20;99.90;;;;;;5078105;28;20025;-74
2023/04/20 06:21:28;;;;;;;5.78;4.22;;;7.10;99.90;;;;;;5079252;28;20116;-74
2023/04/20 06:23:53;;;;;;;6.50;3.42;;;7.20;99.90;;;;;;5078273;28;20031;-74
2023/04/20 06:26:19;;;;;;;8.00;3.97;;;7.20;99.90;;;;;;5077326;28;20043;-74
2023/04/20 06:28:47;;;;;;;6.32;3.53;;;7.20;99.90;;;;;;5079458;28;20020;-74
2023/04/20 06:31:12;;;;;;;6.43;3.70;;;7.30;99.90;;;;;;5077727;28;20123;-74
2023/04/20 06:33:38;;;;;;;5.10;3.40;;;7.40;99.90;;;;;;5078461;28;20116;-74
2023/04/20 06:36:06;;;;;;;6.10;3.67;;;7.50;99.90;;;;;;5078300;28;20027;-74
2023/04/20 06:38:32;;;;;;;4.47;3.45;;;7.40;99.90;;;;;;5077919;28;20029;-74
2023/04/20 06:41:00;;;;;;;4.18;3.00;;;7.50;99.90;;;;;;5078252;28;20174;-74
2023/04/20 06:43:26;;;;;;;4.22;2.50;;;7.50;99.90;;;;;;5077667;28;20081;-74
2023/04/20 06:45:51;;;;;;;7.65;3.90;;;7.50;99.90;;;;;;5077957;28;20123;-74
2023/04/20 06:48:17;;;;;;;5.47;3.50;;;7.40;99.90;;;;;;5077629;28;20115;-74
2023/04/20 06:50:43;;;;;;;5.07;3.33;;;7.30;99.90;;;;;;5077777;28;20024;-74
2023/04/20 06:53:08;;;;;;;7.50;3.40;;;7.30;99.90;;;;;;5077578;28;20027;-74
2023/04/20 06:55:35;;;;;;;4.35;3.25;;;7.20;99.90;;;;;;5077658;28;20024;-74
2023/04/20 06:58:00;;;;;;;5.22;3.50;;;7.30;99.90;;;;;;5077435;28;20028;-74
2023/04/20 07:00:27;;;;;;;6.78;3.50;;;7.20;99.90;;;;;;5078243;28;20029;-74
2023/04/20 07:02:52;;;;;;;4.63;3.00;;;7.30;99.90;;;;;;5078257;28;20024;-74
2023/04/20 07:05:18;;;;;;;4.05;2.72;;;7.20;99.90;;;;;;5077271;28;20027;-74
2023/04/20 07:07:44;;;;;;;3.58;2.42;;;7.10;99.90;;;;;;5078420;28;20029;-74
2023/04/20 07:10:11;;;;;;;4.45;2.85;;;7.00;99.90;;;;;;5077078;28;20062;-74
2023/04/20 07:12:38;;;;;;;3.85;2.83;;;6.90;99.90;;;;;;5077014;28;20048;-74
2023/04/20 07:15:06;;;;;;;3.70;2.63;;;7.00;99.90;;;;;;5078059;28;20028;-74
2023/04/20 07:17:31;;;;;;;4.15;2.85;;;6.90;99.90;;;;;;5077022;28;20020;-74
2023/04/20 07:19:58;;;;;;;4.00;2.40;;;6.70;99.90;;;;;;5078374;28;20035;-74
2023/04/20 07:22:24;;;;;;;3.10;2.42;;;6.80;99.90;;;;;;5077348;28;20024;-74
2023/04/20 07:24:50;;;;;;;4.03;3.28;;;6.80;99.90;;;;;;5077726;28;20078;-74
2023/04/20 07:27:16;;;;;;;5.20;2.67;;;6.70;99.90;;;;;;5077634;28;20024;-74
2023/04/20 07:29:42;;;;;;;4.57;2.95;;;6.70;99.90;;;;;;5077105;28;20036;-74
2023/04/20 07:32:07;;;;;;;3.72;2.53;;;6.80;99.90;;;;;;5076546;28;20052;-74
2023/04/20 07:34:33;;;;;;;4.03;2.42;;;6.90;99.90;;;;;;5077733;28;20020;-74
2023/04/20 07:36:58;;;;;;;3.95;2.20;;;6.90;99.90;;;;;;5076391;28;20027;-74
2023/04/20 07:39:26;;;;;;;7.00;2.78;;;7.00;99.90;;;;;;5077076;28;20036;-74
2023/04/20 07:41:51;;;;;;;4.10;2.70;;;7.10;99.90;;;;;;5076732;28;20028;-74
2023/04/20 07:44:17;;;;;;;4.22;2.75;;;7.10;99.90;;;;;;5076512;28;20024;-74
2023/04/20 07:46:42;;;;;;;4.57;2.63;;;7.10;99.90;;;;;;5076711;28;20020;-74
2023/04/20 07:49:08;;;;;;;4.63;2.38;;;7.00;99.90;;;;;;5076973;28;20029;-74
2023/04/20 07:51:34;;;;;;;3.70;2.70;;;7.10;99.90;;;;;;5076330;28;20032;-74
2023/04/20 07:53:59;;;;;;;4.68;2.40;;;7.10;99.90;;;;;;5076353;28;20021;-74
2023/04/20 07:56:25;;;;;;;5.55;2.55;;;7.20;99.90;;;;;;5076632;28;20033;-75
2023/04/20 07:58:51;;;;;;;3.13;2.05;;;7.40;99.90;;;;;;5077261;28;20025;-75
2023/04/20 08:01:16;;;;;;;5.03;2.47;;;7.40;99.90;;;;;;5076653;28;20066;-75
2023/04/20 08:03:42;;;;;;;4.03;2.20;;;7.40;99.90;;;;;;5076360;28;20025;-75
2023/04/20 08:06:08;;;;;;;3.05;2.20;;;7.30;99.90;;;;;;5076274;28;20050;-75
2023/04/20 08:08:35;;;;;;;4.43;2.28;;;7.30;99.90;;;;;;5076794;28;20024;-75
2023/04/20 08:11:00;;;;;;;2.40;2.03;;;7.30;99.90;;;;;;5076996;28;20103;-74
2023/04/20 08:13:29;;;;;;;3.30;2.20;;;7.30;99.90;;;;;;5077078;28;20052;-74
2023/04/20 08:15:55;;;;;;;2.97;2.25;;;7.50;99.90;;;;;;5076155;28;20023;-75
2023/04/20 08:18:20;;;;;;;4.03;2.75;;;7.60;99.90;;;;;;5077595;28;20091;-73
2023/04/20 08:20:46;;;;;;;4.55;2.42;;;7.70;99.90;;;;;;5076179;28;20066;-73
2023/04/20 08:23:13;;;;;;;4.05;2.15;;;7.70;99.90;;;;;;5076079;28;20145;-75
2023/04/20 08:25:39;;;;;;;3.65;2.53;;;7.80;99.90;;;;;;5077028;28;20024;-75
2023/04/20 08:28:05;;;;;;;3.42;2.83;;;7.70;99.90;;;;;;5077254;28;20020;-73
2023/04/20 08:30:31;;;;;;;3.47;2.63;;;7.60;99.90;;;;;;5076243;28;20021;-74
2023/04/20 08:32:57;;;;;;;5.32;3.13;;;7.60;99.90;;;;;;5076148;28;20063;-74
2023/04/20 08:35:23;;;;;;;4.00;2.58;;;7.60;99.90;;;;;;5075980;28;20021;-74
2023/04/20 08:37:48;;;;;;;4.20;3.33;;;7.50;99.90;;;;;;5075902;28;20046;-74
2023/04/20 08:40:16;;;;;;;4.55;2.97;;;7.50;99.90;;;;;;5075980;28;20021;-73
2023/04/20 08:42:42;;;;;;;5.05;3.05;;;7.50;99.90;;;;;;5076754;28;20113;-73
2023/04/20 08:45:07;;;;;;;3.63;3.10;;;7.70;99.90;;;;;;5075816;28;20021;-73
2023/04/20 08:47:34;;;;;;;5.22;3.45;;;7.70;99.90;;;;;;5075855;28;20032;-72
2023/04/20 08:50:03;;;;;;;5.80;3.38;;;7.70;99.90;;;;;;5078977;28;20024;-72
2023/04/20 08:52:28;;;;;;;4.88;3.35;;;7.70;99.90;;;;;;5080109;28;20021;-72
2023/04/20 08:54:54;;;;;;;4.85;3.33;;;7.80;99.90;;;;;;5080015;28;20087;-73
2023/04/20 08:57:20;;;;;;;6.05;4.28;;;7.90;99.90;;;;;;5079808;28;20028;-73
2023/04/20 08:59:45;;;;;;;5.95;3.28;;;8.00;99.90;;;;;;5079817;28;20028;-74
2023/04/20 09:02:12;;;;;;;4.78;3.38;;;8.30;99.90;;;;;;5079712;28;20021;-72
2023/04/20 09:04:39;;;;;;;6.35;3.42;;;8.40;99.90;;;;;;5080845;28;20020;-74
2023/04/20 09:07:06;;;;;;;5.25;3.65;;;8.40;99.90;;;;;;5079950;28;20081;-75
2023/04/20 09:09:32;;;;;;;5.78;3.90;;;8.50;99.90;;;;;;5079624;28;20084;-74
2023/04/20 09:12:06;;;;;;;6.18;3.63;;;8.40;99.90;;;;;;5079878;28;20101;-74
2023/04/20 09:14:45;;;;;;;6.93;3.88;;;8.30;99.90;;;;;;5080379;28;20020;-74
2023/04/20 09:17:13;;;;;;;5.40;3.78;;;8.20;99.90;;;;;;5079691;28;20028;-74
2023/04/20 09:19:39;;;;;;;7.88;4.60;;;8.20;99.90;;;;;;5079541;28;20024;-73
2023/04/20 09:22:05;;;;;;;8.82;4.00;;;8.30;99.90;;;;;;5079489;28;20016;-74
2023/04/20 09:24:36;;;;;;;7.75;4.25;;;8.30;99.90;;;;;;5079297;28;20028;-74
2023/04/20 09:27:18;;;;;;;6.18;3.78;;;8.30;99.90;;;;;;5079269;28;20027;-74
2023/04/20 09:29:55;;;;;;;6.80;4.47;;;8.30;99.90;;;;;;5078985;28;20029;-74
2023/04/20 09:32:25;;;;;;;6.80;4.10;;;8.40;99.90;;;;;;5079430;28;20028;-74
2023/04/20 09:34:50;;;;;;;14.25;6.63;;;8.40;99.90;;;;;;5079022;28;20021;-74
2023/04/20 09:37:16;;;;;;;7.53;4.35;;;8.60;99.90;;;;;;5080025;28;20027;-74
2023/04/20 09:39:45;;;;;;;12.43;4.63;;;8.70;99.90;;;;;;5078963;28;20027;-74
2023/04/20 09:42:12;;;;;;;6.43;4.22;;;9.00;99.90;;;;;;5080235;28;20107;-74
2023/04/20 09:44:38;;;;;;;7.75;4.40;;;9.40;99.90;;;;;;5079212;28;20021;-74
2023/04/20 09:47:05;;;;;;;7.95;4.45;;;9.70;99.90;;;;;;5079761;28;20028;-74
2023/04/20 09:49:31;;;;;;;8.23;4.63;;;9.90;99.90;;;;;;5079008;28;20156;-74
2023/04/20 09:52:00;;;;;;;8.93;4.53;;;10.20;99.90;;;;;;5079552;28;20081;-74
2023/04/20 09:54:28;;;;;;;11.20;5.88;;;10.50;99.90;;;;;;5078749;28;20052;-75
2023/04/20 09:56:53;;;;;;;6.60;4.60;;;10.90;99.90;;;;;;5079304;28;20098;-75
2023/04/20 09:59:20;;;;;;;9.00;5.07;;;11.20;99.90;;;;;;5078655;28;20029;-75
2023/04/20 10:01:46;;;;;;;9.38;4.75;;;11.40;99.90;;;;;;5078408;28;20052;-74
2023/04/20 10:04:12;;;;;;;8.13;5.43;;;11.60;99.90;;;;;;5078918;28;20021;-75
2023/04/20 10:06:39;;;;;;;9.77;4.85;;;11.70;99.90;;;;;;5079068;28;20029;-75
2023/04/20 10:09:07;;;;;;;8.52;4.80;;;11.80;99.90;;;;;;5078684;28;20044;-73
2023/04/20 10:11:32;;;;;;;7.97;5.40;;;11.70;99.90;;;;;;5078563;28;20036;-75
2023/04/20 10:14:00;;;;;;;5.88;4.53;;;11.70;99.90;;;;;;5081964;28;20017;-74
2023/04/20 10:16:26;;;;;;;10.30;4.72;;;11.90;99.90;;;;;;5081659;28;20175;-75
2023/04/20 10:18:57;;;;;;;19.98;8.77;;;11.90;99.90;;;;;;5080733;28;20036;-75
2023/04/20 10:21:22;;;;;;;7.75;5.13;;;11.90;99.90;;;;;;5079261;28;20036;-74
2023/04/20 10:23:49;;;;;;;5.43;4.15;;;11.60;99.90;;;;;;5078898;28;20025;-74
2023/04/20 10:26:15;;;;;;;7.50;3.97;;;11.50;99.90;;;;;;5079694;28;20024;-74
2023/04/20 10:28:43;;;;;;;6.88;4.05;;;11.50;99.90;;;;;;5079075;28;20080;-74
2023/04/20 10:31:12;;;;;;;10.15;4.30;;;11.50;99.90;;;;;;5078064;28;20115;-74
2023/04/20 10:33:48;;;;;;;7.50;4.55;;;11.60;99.90;;;;;;5078797;28;20029;-75
2023/04/20 10:36:26;;;;;;;7.30;4.05;;;11.90;99.90;;;;;;5078166;28;20074;-75
2023/04/20 10:38:52;;;;;;;8.35;4.18;;;12.00;99.90;;;;;;5078048;28;20054;-74
2023/04/20 10:41:17;;;;;;;5.70;3.60;;;12.40;99.90;;;;;;5078270;28;20037;-74
2023/04/20 10:43:43;;;;;;;6.05;4.07;;;12.60;99.90;;;;;;5080570;28;20020;-74
2023/04/20 10:46:22;;;;;;;5.65;3.58;;;12.70;99.90;;;;;;5078242;28;20025;-75
2023/04/20 10:49:00;;;;;;;6.68;3.58;;;12.60;99.90;;;;;;5079442;28;20024;-75
2023/04/20 10:51:26;;;;;;;7.47;3.80;;;12.50;99.90;;;;;;5077728;28;20024;-75
2023/04/20 10:54:07;;;;;;;4.40;3.50;;;12.30;99.90;;;;;;5078151;28;20032;-74
2023/04/20 10:56:36;;;;;;;5.47;3.40;;;12.50;99.90;;;;;;5078982;28;20171;-76
2023/04/20 10:59:13;;;;;;;5.00;3.00;;;12.70;99.90;;;;;;5078269;28;20020;-75
2023/04/20 11:01:39;;;;;;;5.63;3.17;;;12.50;99.90;;;;;;5079142;28;20025;-76
2023/04/20 11:04:06;;;;;;;4.32;3.25;;;12.30;99.90;;;;;;5078843;28;20052;-75
2023/04/20 11:06:32;;;;;;;4.68;3.22;;;12.20;99.90;;;;;;5078393;28;20029;-75
2023/04/20 11:08:58;;;;;;;4.68;3.05;;;12.20;99.90;;;;;;5078900;28;20074;-77
2023/04/20 11:11:28;;;;;;;7.57;3.63;;;12.10;99.90;;;;;;5077570;28;20024;-75
2023/04/20 11:14:08;;;;;;;5.05;2.90;;;12.20;99.90;;;;;;5077480;28;20032;-75
2023/04/20 11:16:35;;;;;;;5.40;2.83;;;12.20;99.90;;;;;;5077665;28;20027;-74
2023/04/20 11:19:02;;;;;;;7.00;2.97;;;12.40;99.90;;;;;;5077246;28;20056;-75
2023/04/20 11:21:41;;;;;;;4.75;3.20;;;12.90;99.90;;;;;;5076912;28;20024;-75
2023/04/20 11:24:24;;;;;;;4.22;2.83;;;13.30;99.90;;;;;;5077920;28;20025;-75
2023/04/20 11:26:52;;;;;;;4.47;2.42;;;13.00;99.90;;;;;;5077266;28;20051;-74
2023/04/20 11:29:34;;;;;;;3.58;2.80;;;12.70;99.90;;;;;;5076883;28;20033;-74
2023/04/20 11:34:30;;;;;;;6.38;3.00;;;12.60;99.90;;;;;;5075577;28;20049;-70
2023/04/20 11:36:56;;;;;;;6.85;2.90;;;12.50;99.90;;;;;;5060439;28;20020;-70
2023/04/20 11:39:28;;;;;;;4.40;2.78;;;12.40;99.90;;;;;;5060474;28;20024;-70
2023/04/20 11:41:56;;;;;;;6.18;3.22;;;12.50;99.90;;;;;;5060453;28;20111;-71
2023/04/20 11:44:22;;;;;;;5.45;2.90;;;12.60;99.90;;;;;;5080084;28;20111;-70
2023/04/20 11:46:48;;;;;;;4.38;3.05;;;12.60;99.90;;;;;;5080235;28;20020;-70
2023/04/20 11:49:17;;;;;;;4.70;3.10;;;12.50;99.90;;;;;;5079897;28;20035;-70
2023/04/20 11:51:43;;;;;;;5.20;3.00;;;12.90;99.90;;;;;;5097693;28;20077;-69
2023/04/20 11:54:10;;;;;;;5.60;2.92;;;13.20;99.90;;;;;;5079842;28;20016;-70
2023/04/20 11:56:36;;;;;;;4.85;3.28;;;13.30;99.90;;;;;;5080186;28;20020;-70
2023/04/20 11:59:01;;;;;;;5.15;3.50;;;13.50;99.90;;;;;;5080071;28;20043;-70
2023/04/20 12:01:27;;;;;;;5.80;3.72;;;13.70;99.90;;;;;;5079693;28;20055;-70
2023/04/20 12:03:54;;;;;;;7.15;3.90;;;13.80;99.90;;;;;;5079818;28;20031;-70
2023/04/20 12:06:20;;;;;;;5.55;3.58;;;13.80;99.90;;;;;;5097935;28;20030;-69
2023/04/20 12:08:47;;;;;;;5.90;3.97;;;13.80;99.90;;;;;;5080255;28;20024;-69
2023/04/20 12:11:13;;;;;;;6.50;3.92;;;13.80;99.90;;;;;;5080343;28;20028;-69
2023/04/20 12:13:38;;;;;;;6.57;3.78;;;13.70;99.90;;;;;;5079610;28;20020;-69
2023/04/20 12:16:04;;;;;;;6.35;3.78;;;13.60;99.90;;;;;;5079688;28;20085;-69
2023/04/20 12:18:30;;;;;;;5.90;3.38;;;13.80;99.90;;;;;;5079882;28;20050;-69
2023/04/20 12:20:55;;;;;;;4.80;3.53;;;13.90;99.90;;;;;;5079589;28;20074;-69
2023/04/20 12:23:21;;;;;;;5.80;3.90;;;14.10;99.90;;;;;;5079586;28;20030;-69
2023/04/20 12:25:46;;;;;;;5.28;3.63;;;13.90;99.90;;;;;;5096991;28;20024;-71
2023/04/20 12:28:12;;;;;;;5.07;3.33;;;13.70;99.90;;;;;;5079715;28;20031;-70
2023/04/20 12:30:38;;;;;;;5.20;4.00;;;13.60;99.90;;;;;;5079222;28;20031;-70
2023/04/20 12:33:03;;;;;;;5.70;3.83;;;14.00;99.90;;;;;;5079835;28;20024;-70
2023/04/20 12:35:29;;;;;;;6.53;3.13;;;14.30;99.90;;;;;;5079667;28;20027;-70
2023/04/20 12:37:55;;;;;;;5.22;3.10;;;14.60;99.90;;;;;;5079297;28;20031;-70
2023/04/20 12:40:21;;;;;;;4.88;3.05;;;14.70;99.90;;;;;;5079713;28;20024;-70
2023/04/20 12:42:47;;;;;;;4.78;3.13;;;14.60;99.90;;;;;;5079193;28;20031;-70
2023/04/20 12:45:13;;;;;;;9.38;3.38;;;14.30;99.90;;;;;;5080409;28;20024;-70
2023/04/20 12:47:38;;;;;;;4.65;3.40;;;14.00;99.90;;;;;;5079445;28;20024;-71
2023/04/20 12:50:06;;;;;;;5.25;3.20;;;13.80;99.90;;;;;;5079227;28;20039;-71
2023/04/20 12:52:32;;;;;;;5.63;3.28;;;13.70;99.90;;;;;;5080081;28;20031;-71